Athlestan, Iowa
Current Conditions -  °F | °C
As of 10:35 PM on Tuesday 21 Oct 2014 (Local Time) from KCSQ Reporting Station
Clear Clear  
Wind Chill: 50°   Ceiling: Unl
Heat Index: 50°   Visibility: 10mi
Dew Point: 45°   Wind: 10mph
Humidity: 82%   Direction: 120°ESE
Pressure: 30.14"   Gusts: NA
Location:  40.6485°N, 94.5286°W
Report Text: KCSQ 220335Z AUTO 12009KT 10SM CLR 10/07 A3014 RMK AO2
Loading
Personal Weather Stations






























Interactive Weather Map
Tropical Storm Tracking
New forecast layout! Learn more

10-Day Weather Forecast

Advertisements
Track Severe Weather on mobile